Time;durP1;ratioP1;P1;durP2;ratioP2;P2;SDS_P1;SDS_P2;PMS_P1;PMS_P2;Temp;Humidity;BMP_temperature;BMP_pressure;BME280_temperature;BME280_humidity;BME280_pressure;Samples;Min_cycle;Max_cycle;Signal;HPM_P1;HPM_P2
2024/02/17 00:01:12;;;;;;;5.65;3.00;;;10.10;99.90;;;;;;5098125;28;20039;-94
2024/02/17 00:03:38;;;;;;;6.43;3.17;;;10.10;99.90;;;;;;5098312;28;20028;-94
2024/02/17 00:06:04;;;;;;;6.70;3.20;;;10.20;99.90;;;;;;5096996;28;20028;-94
2024/02/17 00:08:29;;;;;;;6.78;3.20;;;10.20;99.90;;;;;;5111650;28;20028;-92
2024/02/17 00:10:55;;;;;;;4.00;2.63;;;10.20;99.90;;;;;;5099541;28;20027;-93
2024/02/17 00:13:21;;;;;;;4.78;2.83;;;10.20;99.90;;;;;;5100064;28;20016;-93
2024/02/17 00:15:46;;;;;;;5.30;2.10;;;10.20;99.90;;;;;;5097285;28;20403;-95
2024/02/17 00:18:12;;;;;;;6.40;2.50;;;10.10;99.90;;;;;;5107099;28;20404;-93
2024/02/17 00:20:38;;;;;;;8.55;2.42;;;10.10;99.90;;;;;;5106976;28;20468;-93
2024/02/17 00:23:05;;;;;;;2.83;2.15;;;10.10;99.90;;;;;;5125844;28;20023;-93
2024/02/17 00:25:31;;;;;;;10.02;3.13;;;10.00;99.90;;;;;;5105910;28;20028;-94
2024/02/17 00:27:56;;;;;;;6.25;2.85;;;10.00;99.90;;;;;;5103478;28;20476;-95
2024/02/17 00:30:22;;;;;;;5.30;2.65;;;9.90;99.90;;;;;;5100023;28;20027;-93
2024/02/17 00:32:48;;;;;;;5.28;2.25;;;9.90;99.90;;;;;;5099760;28;20016;-93
2024/02/17 00:35:14;;;;;;;6.68;2.13;;;9.80;99.90;;;;;;5099690;28;20069;-94
2024/02/17 00:37:40;;;;;;;4.82;2.00;;;9.80;99.90;;;;;;5098488;28;20028;-93
2024/02/17 00:40:06;;;;;;;5.88;1.70;;;9.70;99.90;;;;;;5116679;28;20054;-95
2024/02/17 00:42:32;;;;;;;5.93;2.30;;;9.70;99.90;;;;;;5115017;28;20408;-93
2024/02/17 00:44:58;;;;;;;7.75;2.17;;;9.60;99.90;;;;;;5098135;28;20023;-95
2024/02/17 00:47:24;;;;;;;4.20;1.55;;;9.50;99.90;;;;;;5095793;28;20027;-95
2024/02/17 00:49:50;;;;;;;3.88;1.38;;;9.50;99.90;;;;;;5097903;28;20020;-94
2024/02/17 00:52:15;;;;;;;5.03;1.50;;;9.50;99.90;;;;;;5097351;28;20027;-95
2024/02/17 00:54:41;;;;;;;3.47;1.98;;;9.40;99.90;;;;;;5097727;28;20024;-95
2024/02/17 00:57:07;;;;;;;1.80;1.30;;;9.40;99.90;;;;;;5097485;28;20020;-95
2024/02/17 00:59:33;;;;;;;5.30;1.20;;;9.40;99.90;;;;;;5097816;28;20024;-94
2024/02/17 01:02:01;;;;;;;2.90;0.90;;;9.40;99.90;;;;;;5097867;28;20031;-94
2024/02/17 01:04:26;;;;;;;2.97;1.02;;;9.40;99.90;;;;;;5098024;28;20020;-94
2024/02/17 01:06:52;;;;;;;7.78;1.00;;;9.40;99.90;;;;;;5096279;28;20028;-93
2024/02/17 01:09:18;;;;;;;3.78;1.70;;;9.40;99.90;;;;;;5094208;28;20031;-92
2024/02/17 01:11:43;;;;;;;3.08;0.77;;;9.40;99.90;;;;;;5094952;28;20034;-94
2024/02/17 01:14:09;;;;;;;3.22;0.95;;;9.40;99.90;;;;;;5096433;28;20398;-95
2024/02/17 01:16:35;;;;;;;7.25;2.25;;;9.40;99.90;;;;;;5099754;28;20027;-93
2024/02/17 01:19:01;;;;;;;2.10;0.90;;;9.40;99.90;;;;;;5107555;28;20048;-92
2024/02/17 01:21:30;;;;;;;1.92;0.70;;;9.40;99.90;;;;;;5097684;28;20028;-93
2024/02/17 01:23:58;;;;;;;5.22;0.80;;;9.40;99.90;;;;;;5098161;28;20039;-94
2024/02/17 01:26:23;;;;;;;6.18;1.10;;;9.40;99.90;;;;;;5115071;28;20032;-94
2024/02/17 01:28:49;;;;;;;2.75;1.20;;;9.40;99.90;;;;;;5097115;28;20024;-95
2024/02/17 01:31:15;;;;;;;6.55;0.90;;;9.40;99.90;;;;;;5097015;28;20050;-91
2024/02/17 01:33:40;;;;;;;4.28;0.90;;;9.40;99.90;;;;;;5095835;28;20145;-94
2024/02/17 01:36:13;;;;;;;2.75;0.77;;;9.30;99.90;;;;;;5096668;28;20373;-94
2024/02/17 01:38:39;;;;;;;4.85;0.93;;;9.30;99.90;;;;;;5098359;28;20076;-92
2024/02/17 01:41:05;;;;;;;3.85;0.65;;;9.30;99.90;;;;;;5109866;28;20122;-94
2024/02/17 01:43:30;;;;;;;4.93;1.27;;;9.30;99.90;;;;;;5099287;28;20044;-94
2024/02/17 01:45:56;;;;;;;3.63;1.02;;;9.30;99.90;;;;;;5097911;28;20121;-93
2024/02/17 01:48:22;;;;;;;2.45;0.68;;;9.30;99.90;;;;;;5100105;28;20368;-94
2024/02/17 01:50:48;;;;;;;5.18;0.95;;;9.30;99.90;;;;;;5100088;28;20039;-94
2024/02/17 01:53:14;;;;;;;2.58;1.08;;;9.30;99.90;;;;;;5097387;28;20524;-95
2024/02/17 01:55:40;;;;;;;3.28;1.00;;;9.30;99.90;;;;;;5103815;28;20020;-94
2024/02/17 01:58:06;;;;;;;5.13;0.80;;;9.30;99.90;;;;;;5102026;28;20034;-93
2024/02/17 02:00:33;;;;;;;5.32;0.80;;;9.30;99.90;;;;;;5101212;28;20039;-94
2024/02/17 02:02:58;;;;;;;1.83;0.70;;;9.30;99.90;;;;;;5100757;28;20027;-94
2024/02/17 02:05:24;;;;;;;2.25;0.80;;;9.30;99.90;;;;;;5099742;28;20028;-93
2024/02/17 02:07:50;;;;;;;1.88;0.93;;;9.30;99.90;;;;;;5100914;28;20020;-92
2024/02/17 02:10:16;;;;;;;2.58;0.90;;;9.30;99.90;;;;;;5101021;28;20034;-93
2024/02/17 02:12:42;;;;;;;2.40;0.73;;;9.20;99.90;;;;;;5100629;28;20081;-93
2024/02/17 02:15:10;;;;;;;5.15;1.08;;;9.20;99.90;;;;;;5100570;28;20425;-92
2024/02/17 02:17:37;;;;;;;6.75;0.68;;;9.20;99.90;;;;;;5099669;28;20042;-92
2024/02/17 02:20:04;;;;;;;7.07;1.20;;;9.20;99.90;;;;;;5098289;28;20020;-93
2024/02/17 02:22:30;;;;;;;2.15;0.60;;;9.10;99.90;;;;;;5098364;28;20066;-92
2024/02/17 02:24:58;;;;;;;5.22;0.80;;;9.10;99.90;;;;;;5117641;28;20011;-93
2024/02/17 02:27:27;;;;;;;1.27;0.40;;;9.00;99.90;;;;;;5100241;28;20024;-93
2024/02/17 02:29:56;;;;;;;0.65;0.50;;;8.90;99.90;;;;;;5099479;28;20012;-92
2024/02/17 02:32:25;;;;;;;5.13;0.82;;;8.90;99.90;;;;;;5102284;28;20388;-93
2024/02/17 02:34:51;;;;;;;3.97;0.85;;;8.90;99.90;;;;;;5101055;28;20050;-92
2024/02/17 02:37:17;;;;;;;2.55;0.70;;;8.80;99.90;;;;;;5100469;28;20016;-93
2024/02/17 02:39:43;;;;;;;1.27;0.60;;;8.80;99.90;;;;;;5100893;28;20019;-94
2024/02/17 02:42:09;;;;;;;2.97;0.70;;;8.80;99.90;;;;;;5099450;28;20048;-94
2024/02/17 02:44:34;;;;;;;4.57;1.00;;;8.70;99.90;;;;;;5102520;28;20362;-93
2024/02/17 02:47:00;;;;;;;1.30;0.85;;;8.70;99.90;;;;;;5103556;28;20016;-95
2024/02/17 02:49:26;;;;;;;2.97;0.60;;;8.70;99.90;;;;;;5102705;28;20030;-92
2024/02/17 02:51:52;;;;;;;2.55;0.80;;;8.70;99.90;;;;;;5107527;28;20028;-95
2024/02/17 02:54:19;;;;;;;2.17;1.00;;;8.60;99.90;;;;;;5106434;28;20438;-93
2024/02/17 02:56:44;;;;;;;6.07;1.08;;;8.60;99.90;;;;;;5106388;28;20488;-95
2024/02/17 02:59:10;;;;;;;6.88;1.10;;;8.60;99.90;;;;;;5105416;28;20030;-92
2024/02/17 03:01:36;;;;;;;3.00;1.10;;;8.60;99.90;;;;;;5105189;28;20032;-95
2024/02/17 03:04:01;;;;;;;3.42;1.00;;;8.50;99.90;;;;;;5108162;28;20032;-95
2024/02/17 03:06:29;;;;;;;1.23;0.70;;;8.50;99.90;;;;;;5133632;28;20049;-94
2024/02/17 03:08:55;;;;;;;2.33;1.20;;;8.50;99.90;;;;;;5116860;28;20034;-94
2024/02/17 03:11:20;;;;;;;4.68;1.17;;;8.40;99.90;;;;;;5109801;28;20059;-93
2024/02/17 03:13:46;;;;;;;3.75;1.10;;;8.40;99.90;;;;;;5103761;28;20023;-94
2024/02/17 03:16:25;;;;;;;2.83;1.00;;;8.40;99.90;;;;;;5105720;28;20381;-93
2024/02/17 03:18:54;;;;;;;3.53;1.25;;;8.40;99.90;;;;;;5102150;28;20015;-95
2024/02/17 03:21:20;;;;;;;5.55;1.45;;;8.40;99.90;;;;;;5122922;28;20111;-92
2024/02/17 03:23:46;;;;;;;8.18;1.67;;;8.40;99.90;;;;;;5104343;28;20020;-95
2024/02/17 03:26:12;;;;;;;7.32;1.48;;;8.40;99.90;;;;;;5105358;28;20161;-94
2024/02/17 03:28:37;;;;;;;5.63;1.25;;;8.30;99.90;;;;;;5102105;28;20043;-93
2024/02/17 03:31:04;;;;;;;5.03;1.40;;;8.30;99.90;;;;;;5100005;28;20477;-93
2024/02/17 03:33:30;;;;;;;9.13;1.50;;;8.30;99.90;;;;;;5099990;28;20041;-93
2024/02/17 03:35:56;;;;;;;5.97;1.67;;;8.20;99.90;;;;;;5101046;28;20019;-92
2024/02/17 03:38:21;;;;;;;2.00;0.90;;;8.10;99.90;;;;;;5101841;28;20039;-92
2024/02/17 03:40:47;;;;;;;5.28;1.25;;;8.10;99.90;;;;;;5103274;28;20016;-93
2024/02/17 03:43:13;;;;;;;9.50;2.30;;;8.10;99.90;;;;;;5124877;28;20108;-94
2024/02/17 03:45:38;;;;;;;7.47;1.50;;;8.10;99.90;;;;;;5104915;28;20039;-92
2024/02/17 03:48:04;;;;;;;7.15;1.92;;;8.10;99.90;;;;;;5099802;28;20422;-93
2024/02/17 03:50:30;;;;;;;11.85;1.92;;;8.00;99.90;;;;;;5098896;28;20043;-93
2024/02/17 03:52:56;;;;;;;6.53;1.52;;;8.00;99.90;;;;;;5099059;28;20073;-94
2024/02/17 03:55:21;;;;;;;6.45;1.80;;;7.90;99.90;;;;;;5100186;28;20086;-94
2024/02/17 03:57:48;;;;;;;5.25;1.60;;;7.90;99.90;;;;;;5099592;28;20042;-94
2024/02/17 04:00:14;;;;;;;2.35;1.00;;;7.90;99.90;;;;;;5098477;28;20040;-94
2024/02/17 04:02:40;;;;;;;4.57;1.60;;;7.90;99.90;;;;;;5117128;28;20381;-93
2024/02/17 04:05:08;;;;;;;8.77;2.05;;;7.90;99.90;;;;;;5098251;28;20027;-93
2024/02/17 04:07:34;;;;;;;10.20;1.90;;;7.90;99.90;;;;;;5098698;28;20031;-93
2024/02/17 04:10:00;;;;;;;16.40;3.88;;;7.90;99.90;;;;;;5101957;28;20090;-93
2024/02/17 04:12:25;;;;;;;6.30;1.58;;;7.90;99.90;;;;;;5101046;28;20024;-93
2024/02/17 04:14:51;;;;;;;1.83;1.15;;;7.90;99.90;;;;;;5100190;28;20020;-94
2024/02/17 04:17:17;;;;;;;3.58;1.60;;;7.90;99.90;;;;;;5099668;28;20498;-93
2024/02/17 04:19:44;;;;;;;10.05;1.90;;;7.90;99.90;;;;;;5106660;28;20030;-91
2024/02/17 04:22:09;;;;;;;7.30;1.80;;;7.90;99.90;;;;;;5109464;28;20031;-93
2024/02/17 04:24:35;;;;;;;5.10;1.30;;;7.90;99.90;;;;;;5105217;28;20053;-92
2024/02/17 04:27:01;;;;;;;13.43;2.35;;;7.90;99.90;;;;;;5102097;28;20488;-92
2024/02/17 04:29:26;;;;;;;5.40;1.02;;;7.90;99.90;;;;;;5098837;28;20027;-93
2024/02/17 04:31:52;;;;;;;7.78;1.30;;;7.90;99.90;;;;;;5098519;28;20020;-93
2024/02/17 04:34:18;;;;;;;9.05;1.50;;;7.90;99.90;;;;;;5098267;28;20148;-93
2024/02/17 04:36:44;;;;;;;8.98;1.80;;;7.80;99.90;;;;;;5098611;28;20030;-93
2024/02/17 04:39:13;;;;;;;7.07;1.73;;;7.80;99.90;;;;;;5098008;28;20016;-92
2024/02/17 04:41:38;;;;;;;4.88;1.70;;;7.80;99.90;;;;;;5090708;28;20037;-92
2024/02/17 04:44:04;;;;;;;7.82;2.05;;;7.70;99.90;;;;;;5074571;28;20361;-92
2024/02/17 04:46:30;;;;;;;6.70;1.70;;;7.70;99.90;;;;;;5074042;28;20050;-91
2024/02/17 04:48:56;;;;;;;8.90;1.83;;;7.70;99.90;;;;;;5074714;28;20019;-91
2024/02/17 04:51:21;;;;;;;7.30;1.73;;;7.70;99.90;;;;;;5074030;28;20155;-92
2024/02/17 04:53:48;;;;;;;4.63;1.60;;;7.70;99.90;;;;;;5070545;28;20021;-91
2024/02/17 04:56:14;;;;;;;6.68;1.75;;;7.70;99.90;;;;;;5074071;28;20025;-91
2024/02/17 04:58:44;;;;;;;9.18;3.33;;;7.70;99.90;;;;;;5073802;28;20016;-92
2024/02/17 05:01:10;;;;;;;;;;;7.70;99.90;;;;;;5071327;28;20048;-91
2024/02/17 05:03:36;;;;;;;8.07;2.60;;;7.70;99.90;;;;;;5074516;28;19904;-92
2024/02/17 05:06:02;;;;;;;4.03;1.70;;;7.80;99.90;;;;;;5073365;28;20028;-93
2024/02/17 05:08:28;;;;;;;9.63;2.17;;;7.80;99.90;;;;;;5073710;28;20070;-92
2024/02/17 05:10:54;;;;;;;9.25;2.10;;;7.80;99.90;;;;;;5074657;28;20127;-92
2024/02/17 05:13:20;;;;;;;9.55;1.90;;;7.80;99.90;;;;;;5076247;28;20551;-92
2024/02/17 05:15:46;;;;;;;6.05;2.10;;;7.80;99.90;;;;;;5075757;28;20757;-92
2024/02/17 05:18:11;;;;;;;8.07;1.83;;;7.80;99.90;;;;;;5075716;28;20028;-92
2024/02/17 05:20:37;;;;;;;8.77;2.08;;;7.80;99.90;;;;;;5080980;28;20059;-90
2024/02/17 05:23:03;;;;;;;4.85;2.30;;;7.80;99.90;;;;;;5091474;28;20025;-91
2024/02/17 05:25:29;;;;;;;5.35;2.00;;;7.80;99.90;;;;;;5089418;28;20506;-90
2024/02/17 05:27:55;;;;;;;6.25;2.03;;;7.80;99.90;;;;;;5091412;28;20033;-90
2024/02/17 05:30:21;;;;;;;5.60;2.30;;;7.70;99.90;;;;;;5087628;28;20024;-93
2024/02/17 05:32:48;;;;;;;8.18;2.13;;;7.70;99.90;;;;;;5075235;28;20030;-94
2024/02/17 05:35:14;;;;;;;6.95;2.70;;;7.70;99.90;;;;;;5073120;28;20132;-92
2024/02/17 05:37:40;;;;;;;10.50;2.20;;;7.70;99.90;;;;;;5073052;28;20111;-92
2024/02/17 05:40:07;;;;;;;10.70;2.90;;;7.70;99.90;;;;;;5074225;28;20077;-94
2024/02/17 05:42:34;;;;;;;11.55;2.20;;;7.70;99.90;;;;;;5106876;28;20066;-92
2024/02/17 05:45:04;;;;;;;6.95;2.55;;;7.70;99.90;;;;;;5100114;28;20036;-93
2024/02/17 05:47:29;;;;;;;8.43;2.10;;;7.70;99.90;;;;;;5096611;28;20479;-93
2024/02/17 05:49:55;;;;;;;12.50;3.47;;;7.70;99.90;;;;;;5096568;28;20024;-93
2024/02/17 05:52:21;;;;;;;13.73;4.20;;;7.70;99.90;;;;;;5096165;28;20022;-93
2024/02/17 05:54:47;;;;;;;12.50;3.33;;;7.70;99.90;;;;;;5097791;28;20020;-93
2024/02/17 05:57:12;;;;;;;10.55;3.97;;;7.80;99.90;;;;;;5098127;28;20019;-93
2024/02/17 05:59:38;;;;;;;15.40;4.10;;;7.80;99.90;;;;;;5097984;28;20026;-92
2024/02/17 06:02:04;;;;;;;9.85;4.57;;;7.80;99.90;;;;;;5115609;28;20043;-89
2024/02/17 06:04:30;;;;;;;18.98;4.78;;;7.80;99.90;;;;;;5119404;28;20011;-90
2024/02/17 06:06:55;;;;;;;15.85;3.85;;;7.80;99.90;;;;;;5109037;28;20024;-92
2024/02/17 06:09:21;;;;;;;10.70;3.80;;;7.90;99.90;;;;;;5101864;28;20057;-94
2024/02/17 06:11:50;;;;;;;17.83;4.85;;;7.80;99.90;;;;;;5099896;28;20024;-92
2024/02/17 06:14:16;;;;;;;10.40;3.35;;;7.80;99.90;;;;;;5095778;28;20103;-92
2024/02/17 06:16:42;;;;;;;11.15;3.92;;;7.80;99.90;;;;;;5095943;28;20027;-92
2024/02/17 06:21:54;;;;;;;8.70;4.13;;;7.80;99.90;;;;;;5112572;28;20038;-94
2024/02/17 06:24:20;;;;;;;8.38;3.83;;;7.80;99.90;;;;;;5095453;28;20457;-90
2024/02/17 06:26:45;;;;;;;17.70;4.13;;;7.80;99.90;;;;;;5095571;28;20030;-93
2024/02/17 06:29:11;;;;;;;5.32;2.83;;;7.80;99.90;;;;;;5114009;28;20020;-94
2024/02/17 06:31:37;;;;;;;13.05;3.20;;;7.80;99.90;;;;;;5095824;28;20095;-94
2024/02/17 06:34:03;;;;;;;11.02;3.40;;;7.70;99.90;;;;;;5096120;28;20027;-93
2024/02/17 06:36:29;;;;;;;6.88;3.10;;;7.70;99.90;;;;;;5096744;28;20381;-95
2024/02/17 06:38:55;;;;;;;13.07;4.20;;;7.70;99.90;;;;;;5096842;28;20035;-94
2024/02/17 06:41:21;;;;;;;14.30;4.05;;;7.70;99.90;;;;;;5096542;28;20045;-93
2024/02/17 06:43:48;;;;;;;7.45;3.72;;;7.70;99.90;;;;;;5114625;28;20035;-93
2024/02/17 06:46:15;;;;;;;14.73;4.53;;;7.70;99.90;;;;;;5095910;28;20030;-93
2024/02/17 06:48:40;;;;;;;11.77;3.70;;;7.70;99.90;;;;;;5095685;28;20012;-93
2024/02/17 06:51:09;;;;;;;20.00;5.38;;;7.70;99.90;;;;;;5095831;28;20018;-93
2024/02/17 06:53:35;;;;;;;18.88;4.55;;;7.70;99.90;;;;;;5095569;28;20028;-92
2024/02/17 06:56:01;;;;;;;20.20;4.82;;;7.70;99.90;;;;;;5096662;28;20015;-91
2024/02/17 06:58:26;;;;;;;15.10;3.95;;;7.80;99.90;;;;;;5095539;28;20036;-93
2024/02/17 07:00:52;;;;;;;20.08;4.90;;;7.70;99.90;;;;;;5095743;28;20393;-92
2024/02/17 07:03:18;;;;;;;20.95;5.15;;;7.80;99.90;;;;;;5095938;28;20491;-92
2024/02/17 07:05:44;;;;;;;11.85;4.63;;;7.80;99.90;;;;;;5095770;28;20026;-93
2024/02/17 07:08:11;;;;;;;15.95;6.75;;;7.80;99.90;;;;;;5096253;28;20024;-94
2024/02/17 07:10:37;;;;;;;12.15;6.03;;;7.80;99.90;;;;;;5097268;28;20137;-92
2024/02/17 07:13:05;;;;;;;14.75;5.70;;;7.90;99.90;;;;;;5112680;28;20020;-93
2024/02/17 07:15:31;;;;;;;14.85;5.95;;;7.90;99.90;;;;;;5098543;28;20023;-94
2024/02/17 07:18:01;;;;;;;18.25;6.15;;;7.80;99.90;;;;;;5099603;28;21265;-93
2024/02/17 07:20:31;;;;;;;25.77;7.37;;;7.90;99.90;;;;;;5103693;28;20026;-92
2024/02/17 07:22:57;;;;;;;18.80;6.17;;;7.90;99.90;;;;;;5106686;28;20110;-93
2024/02/17 07:25:24;;;;;;;21.00;6.90;;;7.90;99.90;;;;;;5098581;28;20011;-94
2024/02/17 07:27:50;;;;;;;16.42;7.57;;;7.90;99.90;;;;;;5097605;28;20044;-94
2024/02/17 07:30:16;;;;;;;16.58;8.70;;;7.90;99.90;;;;;;5096872;28;20067;-93
2024/02/17 07:32:42;;;;;;;17.77;8.13;;;8.00;99.90;;;;;;5095181;28;20072;-93
2024/02/17 07:35:08;;;;;;;17.13;8.30;;;8.00;99.90;;;;;;5095210;28;20108;-96
2024/02/17 07:37:33;;;;;;;21.42;9.82;;;8.00;99.90;;;;;;5098111;28;20023;-95
2024/02/17 07:40:00;;;;;;;16.95;7.47;;;8.00;99.90;;;;;;5099569;28;20012;-93
2024/02/17 07:42:28;;;;;;;18.88;8.15;;;8.10;99.90;;;;;;5098131;28;20036;-92
2024/02/17 07:44:54;;;;;;;26.85;8.35;;;8.10;99.90;;;;;;5116606;28;20049;-93
2024/02/17 07:47:20;;;;;;;23.50;7.95;;;8.10;99.90;;;;;;5098843;28;20019;-92
2024/02/17 07:49:46;;;;;;;22.10;7.93;;;8.10;99.90;;;;;;5098359;28;20423;-92
2024/02/17 07:52:12;;;;;;;26.95;9.00;;;8.10;99.90;;;;;;5099025;28;20016;-93
2024/02/17 07:54:37;;;;;;;23.35;8.57;;;8.10;99.90;;;;;;5099529;28;20077;-93
2024/02/17 07:57:03;;;;;;;25.50;8.60;;;8.10;99.90;;;;;;5098630;28;20024;-94
2024/02/17 07:59:29;;;;;;;26.63;8.55;;;8.10;99.90;;;;;;5098647;28;20102;-93
2024/02/17 08:01:54;;;;;;;37.83;8.95;;;8.10;99.90;;;;;;5098649;28;20095;-93
2024/02/17 08:04:20;;;;;;;29.20;8.88;;;8.10;99.90;;;;;;5098669;28;20078;-93
2024/02/17 08:06:46;;;;;;;39.20;16.10;;;8.10;99.90;;;;;;5095401;28;20015;-92
2024/02/17 08:09:11;;;;;;;51.15;19.58;;;8.10;99.90;;;;;;5098347;28;20016;-92
2024/02/17 08:11:37;;;;;;;35.20;15.25;;;8.10;99.90;;;;;;5100354;28;20114;-92
2024/02/17 08:14:05;;;;;;;36.28;13.77;;;8.20;99.90;;;;;;5102553;28;20077;-91
2024/02/17 08:16:31;;;;;;;24.27;11.75;;;8.10;99.90;;;;;;5099054;28;20049;-92
2024/02/17 08:18:57;;;;;;;40.33;13.57;;;8.10;99.90;;;;;;5101851;28;20028;-92
2024/02/17 08:21:24;;;;;;;28.92;13.55;;;8.10;99.90;;;;;;5103130;28;20080;-93
2024/02/17 08:23:51;;;;;;;27.25;12.82;;;8.20;99.90;;;;;;5120406;28;20020;-93
2024/02/17 08:26:17;;;;;;;110.65;14.50;;;8.10;99.90;;;;;;5103573;28;20019;-94
2024/02/17 08:28:43;;;;;;;30.23;10.73;;;8.20;99.90;;;;;;5109913;28;20027;-93
2024/02/17 08:31:09;;;;;;;29.38;12.02;;;8.10;99.90;;;;;;5104899;28;20015;-92
2024/02/17 08:33:36;;;;;;;30.08;10.20;;;8.20;99.90;;;;;;5103863;28;20487;-93
2024/02/17 08:36:01;;;;;;;23.48;9.85;;;8.20;99.90;;;;;;5097778;28;20023;-92
2024/02/17 08:38:27;;;;;;;23.70;10.00;;;8.20;99.90;;;;;;5097347;28;20072;-93
2024/02/17 08:40:53;;;;;;;20.35;9.70;;;8.20;99.90;;;;;;5106002;28;20059;-92
2024/02/17 08:43:18;;;;;;;24.05;8.30;;;8.30;99.90;;;;;;5099503;28;20047;-94
2024/02/17 08:45:44;;;;;;;19.55;8.60;;;8.30;99.90;;;;;;5100688;28;20118;-93
2024/02/17 08:48:10;;;;;;;16.13;8.65;;;8.40;99.90;;;;;;5102121;28;20145;-94
2024/02/17 08:50:35;;;;;;;26.92;11.07;;;8.40;99.90;;;;;;5104471;28;20034;-93
2024/02/17 08:53:01;;;;;;;25.33;10.27;;;8.50;99.90;;;;;;5101212;28;20031;-93
2024/02/17 08:55:28;;;;;;;23.50;10.68;;;8.50;99.90;;;;;;5118465;28;20390;-92
2024/02/17 08:57:54;;;;;;;18.92;8.55;;;8.60;99.90;;;;;;5099163;28;20415;-94
2024/02/17 09:00:22;;;;;;;15.25;7.85;;;8.60;99.90;;;;;;5117591;28;20048;-93
2024/02/17 09:02:48;;;;;;;15.82;8.30;;;8.70;99.90;;;;;;5098257;28;20085;-92
2024/02/17 09:05:14;;;;;;;15.55;7.70;;;8.70;99.90;;;;;;5099012;28;20358;-93
2024/02/17 09:07:40;;;;;;;13.57;6.57;;;8.80;99.90;;;;;;5099243;28;20023;-90
2024/02/17 09:10:06;;;;;;;12.88;7.22;;;8.90;99.90;;;;;;5100937;28;20026;-95
2024/02/17 09:12:32;;;;;;;11.60;6.68;;;9.00;99.90;;;;;;5118074;28;20042;-94
2024/02/17 09:14:57;;;;;;;16.60;7.03;;;9.10;99.90;;;;;;5101550;28;20065;-95
2024/02/17 09:17:24;;;;;;;13.05;6.30;;;9.20;99.90;;;;;;5103154;28;20027;-94
2024/02/17 09:19:56;;;;;;;12.60;6.20;;;9.20;99.90;;;;;;5123570;28;20031;-95
2024/02/17 09:22:28;;;;;;;13.30;6.75;;;9.30;99.90;;;;;;5107402;28;20027;-95
2024/02/17 09:24:57;;;;;;;14.13;7.03;;;9.40;99.90;;;;;;5124526;28;20081;-95
2024/02/17 09:27:26;;;;;;;11.55;6.38;;;9.40;99.90;;;;;;5111147;27;20086;-95
2024/02/17 09:29:59;;;;;;;11.70;6.00;;;9.50;99.90;;;;;;5132914;28;20020;-96
2024/02/17 09:32:32;;;;;;;11.65;5.78;;;9.60;99.90;;;;;;5139055;28;20028;-94
2024/02/17 09:35:16;;;;;;;9.90;5.85;;;9.60;99.90;;;;;;5133150;28;20024;-95
2024/02/17 09:37:52;;;;;;;14.45;6.90;;;9.70;99.90;;;;;;5118807;28;20027;-94
2024/02/17 09:40:24;;;;;;;11.23;6.25;;;9.80;99.90;;;;;;5137861;28;20008;-95
2024/02/17 09:43:03;;;;;;;10.75;6.05;;;9.90;99.90;;;;;;5118196;28;20047;-94
2024/02/17 09:45:35;;;;;;;12.98;6.50;;;10.00;99.90;;;;;;5119113;28;20037;-95
2024/02/17 09:48:02;;;;;;;8.88;5.28;;;10.00;99.90;;;;;;5137965;27;20041;-96
2024/02/17 09:50:35;;;;;;;10.75;5.95;;;10.10;99.90;;;;;;5118170;28;20083;-93
2024/02/17 09:53:03;;;;;;;9.20;5.57;;;10.20;99.90;;;;;;5137952;27;20049;-92
2024/02/17 09:55:30;;;;;;;11.52;6.63;;;10.30;99.90;;;;;;5129196;28;20122;-93
2024/02/17 09:57:57;;;;;;;10.70;6.50;;;10.40;99.90;;;;;;5116242;28;20016;-92
2024/02/17 10:00:23;;;;;;;11.70;6.03;;;10.40;99.90;;;;;;5114631;28;20020;-93
2024/02/17 10:02:51;;;;;;;11.88;6.13;;;10.40;99.90;;;;;;5130426;28;20031;-92
2024/02/17 10:05:21;;;;;;;11.10;6.68;;;10.50;99.90;;;;;;5115813;28;20087;-93
2024/02/17 10:07:51;;;;;;;9.10;5.95;;;10.50;99.90;;;;;;5116486;28;20020;-93
2024/02/17 10:10:18;;;;;;;;;;;10.60;99.90;;;;;;5136302;28;20015;-92
2024/02/17 10:12:55;;;;;;;10.50;5.75;;;10.60;99.90;;;;;;5119059;28;19919;-93
2024/02/17 10:15:22;;;;;;;10.70;6.25;;;10.70;99.90;;;;;;5111492;28;20023;-93
2024/02/17 10:17:49;;;;;;;10.25;6.60;;;10.70;99.90;;;;;;5125348;28;20019;-93
2024/02/17 10:20:14;;;;;;;9.75;5.95;;;10.70;99.90;;;;;;5110466;28;20043;-94
2024/02/17 10:22:44;;;;;;;8.45;5.60;;;10.70;99.90;;;;;;5111196;28;20023;-93
2024/02/17 10:25:10;;;;;;;8.10;5.68;;;10.70;99.90;;;;;;5104486;28;20100;-92
2024/02/17 10:27:38;;;;;;;7.30;4.80;;;10.70;99.90;;;;;;5095715;28;20027;-92
2024/02/17 10:30:11;;;;;;;9.68;6.15;;;10.80;99.90;;;;;;5095933;28;20029;-94
2024/02/17 10:32:37;;;;;;;7.85;4.75;;;10.90;99.90;;;;;;5114151;28;20023;-93
2024/02/17 10:35:05;;;;;;;9.93;5.00;;;11.00;99.90;;;;;;5115039;28;20529;-92
2024/02/17 10:37:32;;;;;;;6.20;3.42;;;11.10;99.90;;;;;;5097210;28;20023;-93
2024/02/17 10:40:14;;;;;;;6.03;3.35;;;11.10;99.90;;;;;;5112160;28;20048;-94
2024/02/17 10:42:40;;;;;;;5.97;3.75;;;11.10;99.90;;;;;;5117519;28;20085;-91
2024/02/17 10:45:06;;;;;;;5.57;4.00;;;11.20;99.90;;;;;;5114561;28;20051;-92
2024/02/17 10:47:36;;;;;;;6.88;4.75;;;11.20;99.90;;;;;;5102128;28;20089;-93
2024/02/17 10:50:12;;;;;;;6.60;4.95;;;11.30;99.90;;;;;;5114822;28;20074;-93
2024/02/17 10:52:44;;;;;;;11.65;7.57;;;11.30;99.90;;;;;;5113322;28;20023;-93
2024/02/17 10:55:14;;;;;;;5.70;4.13;;;11.40;99.90;;;;;;5098433;28;20027;-93
2024/02/17 10:58:00;;;;;;;;;;;11.50;99.90;;;;;;5115559;28;20020;-92
2024/02/17 11:00:26;;;;;;;5.82;3.83;;;11.60;99.90;;;;;;5099721;28;19910;-94
2024/02/17 11:03:04;;;;;;;8.50;5.18;;;11.80;99.90;;;;;;5096701;28;20477;-93
2024/02/17 11:05:38;;;;;;;5.70;3.92;;;11.90;99.90;;;;;;5096376;28;20028;-93
2024/02/17 11:08:05;;;;;;;5.82;3.78;;;12.10;99.90;;;;;;5099177;28;20024;-92
2024/02/17 11:10:32;;;;;;;4.38;3.00;;;12.30;99.90;;;;;;5120031;28;20022;-93
2024/02/17 11:12:59;;;;;;;4.30;3.38;;;12.50;99.90;;;;;;5104133;28;20031;-93
2024/02/17 11:15:25;;;;;;;4.70;3.05;;;12.80;99.90;;;;;;5103237;28;20019;-92
2024/02/17 11:17:57;;;;;;;6.95;3.22;;;13.10;99.90;;;;;;5104218;28;20023;-92
2024/02/17 11:20:25;;;;;;;4.80;3.15;;;13.20;99.90;;;;;;5099968;28;20028;-92
2024/02/17 11:22:51;;;;;;;5.50;3.80;;;13.30;99.90;;;;;;5124214;28;20043;-94
2024/02/17 11:25:41;;;;;;;3.58;3.28;;;13.30;99.90;;;;;;5120030;28;20038;-92
2024/02/17 11:28:21;;;;;;;5.22;3.55;;;13.30;99.90;;;;;;5098585;28;20030;-93
2024/02/17 11:30:48;;;;;;;;;;;13.20;99.90;;;;;;5097983;28;20088;-93
2024/02/17 11:33:15;;;;;;;5.97;3.45;;;13.10;99.90;;;;;;5116186;28;19908;-92
2024/02/17 11:35:45;;;;;;;4.78;3.33;;;13.00;99.90;;;;;;5098149;28;20068;-93
2024/02/17 11:38:21;;;;;;;6.90;4.50;;;12.80;99.90;;;;;;5096642;28;20066;-93
2024/02/17 11:40:49;;;;;;;6.38;4.10;;;12.70;99.90;;;;;;5117357;28;20035;-93
2024/02/17 11:43:15;;;;;;;10.10;5.10;;;12.50;99.90;;;;;;5098671;28;20077;-92
2024/02/17 11:45:40;;;;;;;5.80;4.35;;;12.40;99.90;;;;;;5098490;28;20031;-94
2024/02/17 11:48:07;;;;;;;9.70;5.63;;;12.30;99.90;;;;;;5102491;28;20028;-94
2024/02/17 11:50:32;;;;;;;5.65;4.20;;;12.30;99.90;;;;;;5124787;28;20023;-93
2024/02/17 11:52:59;;;;;;;9.82;5.40;;;12.30;99.90;;;;;;5101171;28;20019;-93
2024/02/17 11:55:26;;;;;;;7.68;5.40;;;12.40;99.90;;;;;;5118420;28;20023;-93
2024/02/17 11:57:56;;;;;;;7.53;5.03;;;12.40;99.90;;;;;;5116573;28;20024;-94
2024/02/17 12:00:25;;;;;;;11.68;5.05;;;12.40;99.90;;;;;;5116583;28;20019;-92
2024/02/17 12:02:50;;;;;;;8.75;5.32;;;12.50;99.90;;;;;;5099750;28;20023;-92
2024/02/17 12:05:16;;;;;;;6.55;4.80;;;12.70;99.90;;;;;;5100962;28;20495;-93
2024/02/17 12:07:42;;;;;;;8.00;4.63;;;13.00;99.90;;;;;;5116963;28;20441;-93
2024/02/17 12:10:08;;;;;;;5.55;3.70;;;13.20;99.90;;;;;;5117547;28;20024;-94
2024/02/17 12:12:39;;;;;;;7.10;4.43;;;13.40;99.90;;;;;;5107347;28;20508;-94
2024/02/17 12:15:09;;;;;;;7.22;4.15;;;13.40;99.90;;;;;;5107407;28;20020;-94
2024/02/17 12:17:42;;;;;;;6.78;4.30;;;13.60;99.90;;;;;;5107765;28;20024;-90
2024/02/17 12:20:11;;;;;;;7.88;3.90;;;13.70;99.90;;;;;;5108417;28;20047;-94
2024/02/17 12:22:39;;;;;;;5.63;3.58;;;13.70;99.90;;;;;;5102422;28;20070;-93
2024/02/17 12:25:05;;;;;;;6.20;3.88;;;13.60;99.90;;;;;;5120365;28;20031;-93
2024/02/17 12:27:32;;;;;;;6.82;3.50;;;13.40;99.90;;;;;;5101793;28;20380;-92
2024/02/17 12:29:57;;;;;;;4.45;2.85;;;13.30;99.90;;;;;;5101006;28;20024;-93
2024/02/17 12:32:23;;;;;;;6.10;3.13;;;13.20;99.90;;;;;;5103378;28;20020;-92
2024/02/17 12:34:49;;;;;;;6.35;3.25;;;13.10;99.90;;;;;;5103452;28;20043;-92
2024/02/17 12:37:16;;;;;;;7.70;3.03;;;13.10;99.90;;;;;;5102732;28;20408;-92
2024/02/17 12:39:42;;;;;;;5.80;3.00;;;13.10;99.90;;;;;;5100749;28;20396;-92
2024/02/17 12:42:08;;;;;;;4.80;2.90;;;13.10;99.90;;;;;;5102438;28;20028;-93
2024/02/17 12:44:34;;;;;;;7.30;2.53;;;13.10;99.90;;;;;;5100006;28;20048;-93
2024/02/17 12:47:15;;;;;;;4.35;2.97;;;13.10;99.90;;;;;;5100086;28;20031;-93
2024/02/17 12:49:42;;;;;;;9.63;3.47;;;13.10;99.90;;;;;;5094335;28;20053;-93
2024/02/17 12:52:07;;;;;;;4.07;2.78;;;13.10;99.90;;;;;;5116163;28;20023;-93